sensor_id;sensor_type;location;lat;lon;timestamp;P1;durP1;ratioP1;P2;durP2;ratioP2
59486;SDS011;45298;54.918;73.504;2023-04-29T00:02:37;41.45;;;23.00;;
59486;SDS011;45298;54.918;73.504;2023-04-29T00:05:06;45.95;;;23.90;;
59486;SDS011;45298;54.918;73.504;2023-04-29T00:07:35;43.08;;;23.83;;
59486;SDS011;45298;54.918;73.504;2023-04-29T00:10:04;41.08;;;22.25;;
59486;SDS011;45298;54.918;73.504;2023-04-29T00:12:34;40.95;;;22.85;;
59486;SDS011;45298;54.918;73.504;2023-04-29T00:15:02;41.42;;;23.25;;
59486;SDS011;45298;54.918;73.504;2023-04-29T00:17:33;46.25;;;23.55;;
59486;SDS011;45298;54.918;73.504;2023-04-29T00:20:04;42.25;;;23.15;;
59486;SDS011;45298;54.918;73.504;2023-04-29T00:22:40;40.55;;;23.02;;
59486;SDS011;45298;54.918;73.504;2023-04-29T00:25:09;39.63;;;22.20;;
59486;SDS011;45298;54.918;73.504;2023-04-29T00:27:38;38.88;;;21.38;;
59486;SDS011;45298;54.918;73.504;2023-04-29T00:30:16;36.53;;;18.40;;
59486;SDS011;45298;54.918;73.504;2023-04-29T00:32:45;39.20;;;21.85;;
59486;SDS011;45298;54.918;73.504;2023-04-29T00:35:14;36.92;;;20.98;;
59486;SDS011;45298;54.918;73.504;2023-04-29T00:37:43;37.65;;;21.25;;
59486;SDS011;45298;54.918;73.504;2023-04-29T00:40:12;33.28;;;18.52;;
59486;SDS011;45298;54.918;73.504;2023-04-29T00:42:42;36.90;;;19.90;;
59486;SDS011;45298;54.918;73.504;2023-04-29T00:45:11;35.03;;;19.63;;
59486;SDS011;45298;54.918;73.504;2023-04-29T00:47:39;36.92;;;18.58;;
59486;SDS011;45298;54.918;73.504;2023-04-29T00:50:09;30.48;;;17.00;;
59486;SDS011;45298;54.918;73.504;2023-04-29T00:52:38;33.22;;;19.20;;
59486;SDS011;45298;54.918;73.504;2023-04-29T00:55:07;32.83;;;15.93;;
59486;SDS011;45298;54.918;73.504;2023-04-29T00:57:40;38.03;;;19.92;;
59486;SDS011;45298;54.918;73.504;2023-04-29T01:00:09;37.72;;;19.73;;
59486;SDS011;45298;54.918;73.504;2023-04-29T01:02:38;37.50;;;19.27;;
59486;SDS011;45298;54.918;73.504;2023-04-29T01:05:10;34.03;;;18.73;;
59486;SDS011;45298;54.918;73.504;2023-04-29T01:10:46;31.90;;;17.50;;
59486;SDS011;45298;54.918;73.504;2023-04-29T01:18:55;30.25;;;16.65;;
59486;SDS011;45298;54.918;73.504;2023-04-29T01:21:30;28.98;;;15.77;;
59486;SDS011;45298;54.918;73.504;2023-04-29T01:23:59;26.75;;;15.88;;
59486;SDS011;45298;54.918;73.504;2023-04-29T01:26:31;29.15;;;14.57;;
59486;SDS011;45298;54.918;73.504;2023-04-29T01:29:33;24.38;;;13.65;;
59486;SDS011;45298;54.918;73.504;2023-04-29T01:32:17;25.17;;;12.63;;
59486;SDS011;45298;54.918;73.504;2023-04-29T01:35:03;22.83;;;11.57;;
59486;SDS011;45298;54.918;73.504;2023-04-29T01:40:46;19.13;;;11.48;;
59486;SDS011;45298;54.918;73.504;2023-04-29T01:43:24;15.40;;;9.80;;
59486;SDS011;45298;54.918;73.504;2023-04-29T01:46:00;19.80;;;10.88;;
59486;SDS011;45298;54.918;73.504;2023-04-29T01:48:32;20.67;;;9.93;;
59486;SDS011;45298;54.918;73.504;2023-04-29T01:51:03;18.90;;;11.35;;
59486;SDS011;45298;54.918;73.504;2023-04-29T01:53:34;20.75;;;10.18;;
59486;SDS011;45298;54.918;73.504;2023-04-29T01:56:02;15.80;;;9.25;;
59486;SDS011;45298;54.918;73.504;2023-04-29T01:58:43;19.95;;;10.32;;
59486;SDS011;45298;54.918;73.504;2023-04-29T02:01:47;16.40;;;9.82;;
59486;SDS011;45298;54.918;73.504;2023-04-29T02:04:16;16.80;;;10.48;;
59486;SDS011;45298;54.918;73.504;2023-04-29T02:06:45;18.88;;;10.85;;
59486;SDS011;45298;54.918;73.504;2023-04-29T02:09:16;16.55;;;9.98;;
59486;SDS011;45298;54.918;73.504;2023-04-29T02:11:51;16.20;;;9.88;;
59486;SDS011;45298;54.918;73.504;2023-04-29T02:14:20;16.65;;;9.73;;
59486;SDS011;45298;54.918;73.504;2023-04-29T02:16:49;17.25;;;10.85;;
59486;SDS011;45298;54.918;73.504;2023-04-29T02:19:18;16.63;;;10.25;;
59486;SDS011;45298;54.918;73.504;2023-04-29T02:21:50;222.70;;;130.00;;
59486;SDS011;45298;54.918;73.504;2023-04-29T02:24:19;14.02;;;8.50;;
59486;SDS011;45298;54.918;73.504;2023-04-29T02:26:48;19.67;;;9.32;;
59486;SDS011;45298;54.918;73.504;2023-04-29T02:29:17;16.40;;;8.63;;
59486;SDS011;45298;54.918;73.504;2023-04-29T02:31:46;13.95;;;8.20;;
59486;SDS011;45298;54.918;73.504;2023-04-29T02:34:15;16.55;;;9.25;;
59486;SDS011;45298;54.918;73.504;2023-04-29T02:36:44;16.40;;;9.68;;
59486;SDS011;45298;54.918;73.504;2023-04-29T02:39:12;17.30;;;9.55;;
59486;SDS011;45298;54.918;73.504;2023-04-29T02:41:41;15.05;;;8.20;;
59486;SDS011;45298;54.918;73.504;2023-04-29T02:44:10;14.13;;;8.60;;
59486;SDS011;45298;54.918;73.504;2023-04-29T02:46:39;12.77;;;7.85;;
59486;SDS011;45298;54.918;73.504;2023-04-29T02:49:12;14.07;;;7.45;;
59486;SDS011;45298;54.918;73.504;2023-04-29T02:51:42;13.35;;;9.05;;
59486;SDS011;45298;54.918;73.504;2023-04-29T02:54:11;13.10;;;7.55;;
59486;SDS011;45298;54.918;73.504;2023-04-29T02:56:40;16.33;;;8.35;;
59486;SDS011;45298;54.918;73.504;2023-04-29T02:59:10;13.20;;;6.80;;
59486;SDS011;45298;54.918;73.504;2023-04-29T03:01:39;14.85;;;6.75;;
59486;SDS011;45298;54.918;73.504;2023-04-29T03:04:10;12.45;;;6.22;;
59486;SDS011;45298;54.918;73.504;2023-04-29T03:06:39;9.63;;;5.53;;
59486;SDS011;45298;54.918;73.504;2023-04-29T03:09:10;10.30;;;5.53;;
59486;SDS011;45298;54.918;73.504;2023-04-29T03:11:45;11.68;;;6.10;;
59486;SDS011;45298;54.918;73.504;2023-04-29T03:14:14;15.25;;;6.32;;
59486;SDS011;45298;54.918;73.504;2023-04-29T03:16:42;15.63;;;10.45;;
59486;SDS011;45298;54.918;73.504;2023-04-29T03:19:11;13.55;;;6.75;;
59486;SDS011;45298;54.918;73.504;2023-04-29T03:21:40;11.50;;;6.22;;
59486;SDS011;45298;54.918;73.504;2023-04-29T03:24:09;11.88;;;6.38;;
59486;SDS011;45298;54.918;73.504;2023-04-29T03:26:38;11.88;;;7.30;;
59486;SDS011;45298;54.918;73.504;2023-04-29T03:29:07;50.97;;;23.58;;
59486;SDS011;45298;54.918;73.504;2023-04-29T03:31:36;20.95;;;11.45;;
59486;SDS011;45298;54.918;73.504;2023-04-29T03:34:05;10.25;;;6.32;;
59486;SDS011;45298;54.918;73.504;2023-04-29T03:36:37;11.52;;;6.25;;
59486;SDS011;45298;54.918;73.504;2023-04-29T03:39:07;182.82;;;66.65;;
59486;SDS011;45298;54.918;73.504;2023-04-29T03:41:39;15.43;;;6.78;;
59486;SDS011;45298;54.918;73.504;2023-04-29T03:44:08;12.95;;;6.65;;
59486;SDS011;45298;54.918;73.504;2023-04-29T03:46:41;34.58;;;27.48;;
59486;SDS011;45298;54.918;73.504;2023-04-29T03:49:10;15.38;;;6.43;;
59486;SDS011;45298;54.918;73.504;2023-04-29T03:51:41;12.38;;;7.00;;
59486;SDS011;45298;54.918;73.504;2023-04-29T03:54:14;14.90;;;7.47;;
59486;SDS011;45298;54.918;73.504;2023-04-29T03:56:43;12.68;;;7.80;;
59486;SDS011;45298;54.918;73.504;2023-04-29T03:59:12;13.82;;;7.30;;
59486;SDS011;45298;54.918;73.504;2023-04-29T04:01:41;13.68;;;7.60;;
59486;SDS011;45298;54.918;73.504;2023-04-29T04:04:10;21.75;;;9.77;;
59486;SDS011;45298;54.918;73.504;2023-04-29T04:06:44;15.73;;;7.70;;
59486;SDS011;45298;54.918;73.504;2023-04-29T04:09:21;14.57;;;7.78;;
59486;SDS011;45298;54.918;73.504;2023-04-29T04:11:50;12.65;;;7.43;;
59486;SDS011;45298;54.918;73.504;2023-04-29T04:14:19;11.73;;;6.82;;
59486;SDS011;45298;54.918;73.504;2023-04-29T04:16:50;10.85;;;6.18;;
59486;SDS011;45298;54.918;73.504;2023-04-29T04:19:19;13.30;;;6.05;;
59486;SDS011;45298;54.918;73.504;2023-04-29T04:21:48;14.55;;;5.82;;
59486;SDS011;45298;54.918;73.504;2023-04-29T04:24:17;12.90;;;6.50;;
59486;SDS011;45298;54.918;73.504;2023-04-29T04:26:46;9.88;;;5.50;;
59486;SDS011;45298;54.918;73.504;2023-04-29T04:29:20;12.82;;;5.63;;
59486;SDS011;45298;54.918;73.504;2023-04-29T04:31:58;9.32;;;5.10;;
59486;SDS011;45298;54.918;73.504;2023-04-29T04:34:28;10.93;;;6.03;;
59486;SDS011;45298;54.918;73.504;2023-04-29T04:36:59;12.23;;;5.50;;
59486;SDS011;45298;54.918;73.504;2023-04-29T04:39:29;8.73;;;4.45;;
59486;SDS011;45298;54.918;73.504;2023-04-29T04:41:58;8.25;;;4.70;;
59486;SDS011;45298;54.918;73.504;2023-04-29T04:44:31;11.95;;;4.78;;
59486;SDS011;45298;54.918;73.504;2023-04-29T04:47:06;8.65;;;4.63;;
59486;SDS011;45298;54.918;73.504;2023-04-29T04:49:55;8.45;;;5.47;;
59486;SDS011;45298;54.918;73.504;2023-04-29T04:52:24;12.60;;;5.00;;
59486;SDS011;45298;54.918;73.504;2023-04-29T04:55:01;9.20;;;4.53;;
59486;SDS011;45298;54.918;73.504;2023-04-29T04:57:34;7.57;;;4.10;;
59486;SDS011;45298;54.918;73.504;2023-04-29T05:00:02;10.02;;;3.90;;
59486;SDS011;45298;54.918;73.504;2023-04-29T05:02:32;9.20;;;5.15;;
59486;SDS011;45298;54.918;73.504;2023-04-29T05:05:01;7.25;;;4.10;;
59486;SDS011;45298;54.918;73.504;2023-04-29T05:07:33;10.32;;;4.78;;
59486;SDS011;45298;54.918;73.504;2023-04-29T05:10:04;7.05;;;4.05;;
59486;SDS011;45298;54.918;73.504;2023-04-29T05:12:43;10.15;;;6.13;;
59486;SDS011;45298;54.918;73.504;2023-04-29T05:15:12;6.47;;;3.50;;
59486;SDS011;45298;54.918;73.504;2023-04-29T05:17:44;6.35;;;3.58;;
59486;SDS011;45298;54.918;73.504;2023-04-29T05:20:13;9.65;;;4.80;;
59486;SDS011;45298;54.918;73.504;2023-04-29T05:22:43;12.23;;;5.45;;
59486;SDS011;45298;54.918;73.504;2023-04-29T05:25:13;10.52;;;4.13;;
59486;SDS011;45298;54.918;73.504;2023-04-29T05:27:42;8.70;;;3.67;;
59486;SDS011;45298;54.918;73.504;2023-04-29T05:30:15;8.30;;;3.78;;
59486;SDS011;45298;54.918;73.504;2023-04-29T05:32:45;6.40;;;2.92;;
59486;SDS011;45298;54.918;73.504;2023-04-29T05:35:17;7.55;;;3.58;;
59486;SDS011;45298;54.918;73.504;2023-04-29T05:37:46;10.68;;;4.38;;
59486;SDS011;45298;54.918;73.504;2023-04-29T05:40:41;31.45;;;6.05;;
59486;SDS011;45298;54.918;73.504;2023-04-29T05:43:37;20.10;;;4.75;;
59486;SDS011;45298;54.918;73.504;2023-04-29T05:46:06;18.77;;;9.95;;
59486;SDS011;45298;54.918;73.504;2023-04-29T05:48:35;14.20;;;7.85;;
59486;SDS011;45298;54.918;73.504;2023-04-29T05:51:04;10.13;;;3.95;;
59486;SDS011;45298;54.918;73.504;2023-04-29T05:53:33;21.23;;;11.18;;
59486;SDS011;45298;54.918;73.504;2023-04-29T05:56:07;9.30;;;5.33;;
59486;SDS011;45298;54.918;73.504;2023-04-29T05:58:40;9.75;;;3.90;;
59486;SDS011;45298;54.918;73.504;2023-04-29T06:01:09;8.02;;;4.13;;
59486;SDS011;45298;54.918;73.504;2023-04-29T06:03:39;11.48;;;5.10;;
59486;SDS011;45298;54.918;73.504;2023-04-29T06:06:22;9.90;;;4.32;;
59486;SDS011;45298;54.918;73.504;2023-04-29T06:09:06;7.37;;;4.07;;
59486;SDS011;45298;54.918;73.504;2023-04-29T06:11:50;21.25;;;9.60;;
59486;SDS011;45298;54.918;73.504;2023-04-29T06:14:20;17.92;;;8.23;;
59486;SDS011;45298;54.918;73.504;2023-04-29T06:16:52;29.02;;;7.60;;
59486;SDS011;45298;54.918;73.504;2023-04-29T06:19:23;23.52;;;8.65;;
59486;SDS011;45298;54.918;73.504;2023-04-29T06:21:52;18.60;;;8.45;;
59486;SDS011;45298;54.918;73.504;2023-04-29T06:24:21;26.50;;;10.05;;
59486;SDS011;45298;54.918;73.504;2023-04-29T06:26:50;10.77;;;3.65;;
59486;SDS011;45298;54.918;73.504;2023-04-29T06:29:19;17.55;;;4.57;;
59486;SDS011;45298;54.918;73.504;2023-04-29T06:31:48;39.60;;;7.18;;
59486;SDS011;45298;54.918;73.504;2023-04-29T06:34:17;11.23;;;4.25;;
59486;SDS011;45298;54.918;73.504;2023-04-29T06:37:07;9.10;;;4.30;;
59486;SDS011;45298;54.918;73.504;2023-04-29T06:39:51;14.02;;;5.15;;
59486;SDS011;45298;54.918;73.504;2023-04-29T06:42:39;12.40;;;6.00;;
59486;SDS011;45298;54.918;73.504;2023-04-29T06:45:26;25.02;;;6.20;;
59486;SDS011;45298;54.918;73.504;2023-04-29T06:48:05;42.20;;;6.60;;
59486;SDS011;45298;54.918;73.504;2023-04-29T06:50:38;33.33;;;6.20;;
59486;SDS011;45298;54.918;73.504;2023-04-29T06:53:08;27.52;;;6.28;;
59486;SDS011;45298;54.918;73.504;2023-04-29T06:55:37;19.42;;;7.57;;
59486;SDS011;45298;54.918;73.504;2023-04-29T06:58:06;19.80;;;7.38;;
59486;SDS011;45298;54.918;73.504;2023-04-29T07:00:35;45.70;;;8.32;;
59486;SDS011;45298;54.918;73.504;2023-04-29T07:03:07;56.65;;;18.77;;
59486;SDS011;45298;54.918;73.504;2023-04-29T07:05:38;28.27;;;8.38;;
59486;SDS011;45298;54.918;73.504;2023-04-29T07:08:09;24.77;;;8.93;;
59486;SDS011;45298;54.918;73.504;2023-04-29T07:10:41;39.65;;;10.95;;
59486;SDS011;45298;54.918;73.504;2023-04-29T07:13:10;41.83;;;14.38;;
59486;SDS011;45298;54.918;73.504;2023-04-29T07:15:39;23.40;;;11.95;;
59486;SDS011;45298;54.918;73.504;2023-04-29T07:18:08;31.70;;;17.40;;
59486;SDS011;45298;54.918;73.504;2023-04-29T07:20:38;49.33;;;19.08;;
59486;SDS011;45298;54.918;73.504;2023-04-29T07:23:07;47.83;;;18.90;;
59486;SDS011;45298;54.918;73.504;2023-04-29T07:25:37;49.95;;;19.13;;
59486;SDS011;45298;54.918;73.504;2023-04-29T07:28:06;44.67;;;18.83;;
59486;SDS011;45298;54.918;73.504;2023-04-29T07:30:36;42.88;;;17.52;;
59486;SDS011;45298;54.918;73.504;2023-04-29T07:33:06;59.00;;;20.30;;
59486;SDS011;45298;54.918;73.504;2023-04-29T07:35:35;70.65;;;19.25;;
59486;SDS011;45298;54.918;73.504;2023-04-29T07:38:04;57.10;;;18.05;;
59486;SDS011;45298;54.918;73.504;2023-04-29T07:40:33;32.58;;;14.75;;
59486;SDS011;45298;54.918;73.504;2023-04-29T07:43:02;129.18;;;37.08;;
59486;SDS011;45298;54.918;73.504;2023-04-29T07:45:33;67.15;;;18.95;;
59486;SDS011;45298;54.918;73.504;2023-04-29T07:48:03;50.60;;;17.63;;
59486;SDS011;45298;54.918;73.504;2023-04-29T07:50:33;40.20;;;15.23;;
59486;SDS011;45298;54.918;73.504;2023-04-29T07:53:06;54.13;;;14.85;;
59486;SDS011;45298;54.918;73.504;2023-04-29T07:55:38;42.45;;;15.05;;
59486;SDS011;45298;54.918;73.504;2023-04-29T07:58:08;34.25;;;13.35;;
59486;SDS011;45298;54.918;73.504;2023-04-29T08:00:37;31.15;;;15.45;;
59486;SDS011;45298;54.918;73.504;2023-04-29T08:03:06;25.77;;;13.55;;
59486;SDS011;45298;54.918;73.504;2023-04-29T08:05:35;23.40;;;13.98;;
59486;SDS011;45298;54.918;73.504;2023-04-29T08:08:05;27.20;;;14.00;;
59486;SDS011;45298;54.918;73.504;2023-04-29T08:10:36;46.95;;;15.07;;
59486;SDS011;45298;54.918;73.504;2023-04-29T08:13:08;54.90;;;15.95;;
59486;SDS011;45298;54.918;73.504;2023-04-29T08:15:36;25.90;;;13.40;;
59486;SDS011;45298;54.918;73.504;2023-04-29T08:18:05;28.40;;;13.07;;
59486;SDS011;45298;54.918;73.504;2023-04-29T08:20:34;27.63;;;12.45;;
59486;SDS011;45298;54.918;73.504;2023-04-29T08:23:03;32.03;;;12.77;;
59486;SDS011;45298;54.918;73.504;2023-04-29T08:25:32;24.70;;;13.27;;
59486;SDS011;45298;54.918;73.504;2023-04-29T08:28:00;28.25;;;13.10;;
59486;SDS011;45298;54.918;73.504;2023-04-29T08:30:29;23.92;;;11.15;;
59486;SDS011;45298;54.918;73.504;2023-04-29T08:32:58;16.02;;;10.20;;
59486;SDS011;45298;54.918;73.504;2023-04-29T08:35:27;19.33;;;10.45;;
59486;SDS011;45298;54.918;73.504;2023-04-29T08:37:57;21.35;;;9.15;;
59486;SDS011;45298;54.918;73.504;2023-04-29T08:40:27;15.40;;;8.82;;
59486;SDS011;45298;54.918;73.504;2023-04-29T08:42:57;36.63;;;21.00;;
59486;SDS011;45298;54.918;73.504;2023-04-29T08:45:26;13.20;;;7.80;;
59486;SDS011;45298;54.918;73.504;2023-04-29T08:47:56;20.40;;;8.65;;
59486;SDS011;45298;54.918;73.504;2023-04-29T08:50:29;16.55;;;7.78;;
59486;SDS011;45298;54.918;73.504;2023-04-29T08:52:59;18.63;;;8.68;;
59486;SDS011;45298;54.918;73.504;2023-04-29T08:55:28;20.25;;;9.45;;
59486;SDS011;45298;54.918;73.504;2023-04-29T08:57:58;22.42;;;8.60;;
59486;SDS011;45298;54.918;73.504;2023-04-29T09:00:29;28.23;;;9.57;;
59486;SDS011;45298;54.918;73.504;2023-04-29T09:03:00;26.27;;;10.20;;
59486;SDS011;45298;54.918;73.504;2023-04-29T09:05:40;17.05;;;7.82;;
59486;SDS011;45298;54.918;73.504;2023-04-29T09:08:10;17.63;;;9.18;;
59486;SDS011;45298;54.918;73.504;2023-04-29T09:10:42;24.23;;;9.90;;
59486;SDS011;45298;54.918;73.504;2023-04-29T09:15:53;24.88;;;10.38;;
59486;SDS011;45298;54.918;73.504;2023-04-29T09:21:18;17.05;;;9.48;;
59486;SDS011;45298;54.918;73.504;2023-04-29T09:23:53;15.60;;;8.93;;
59486;SDS011;45298;54.918;73.504;2023-04-29T09:29:11;19.15;;;10.98;;
59486;SDS011;45298;54.918;73.504;2023-04-29T09:31:43;19.15;;;11.25;;
59486;SDS011;45298;54.918;73.504;2023-04-29T09:34:13;32.53;;;12.70;;
59486;SDS011;45298;54.918;73.504;2023-04-29T09:36:50;26.23;;;13.18;;
59486;SDS011;45298;54.918;73.504;2023-04-29T09:39:24;21.00;;;13.05;;
59486;SDS011;45298;54.918;73.504;2023-04-29T09:44:23;26.38;;;13.77;;
59486;SDS011;45298;54.918;73.504;2023-04-29T09:47:00;38.97;;;16.30;;
59486;SDS011;45298;54.918;73.504;2023-04-29T09:52:00;32.80;;;15.73;;
59486;SDS011;45298;54.918;73.504;2023-04-29T09:54:38;27.33;;;15.40;;
59486;SDS011;45298;54.918;73.504;2023-04-29T09:57:09;38.70;;;19.77;;
59486;SDS011;45298;54.918;73.504;2023-04-29T09:59:40;25.58;;;15.05;;
59486;SDS011;45298;54.918;73.504;2023-04-29T10:02:14;30.30;;;14.93;;
59486;SDS011;45298;54.918;73.504;2023-04-29T10:04:51;36.88;;;15.10;;
59486;SDS011;45298;54.918;73.504;2023-04-29T10:07:24;26.27;;;12.52;;
59486;SDS011;45298;54.918;73.504;2023-04-29T10:09:55;23.55;;;12.98;;
59486;SDS011;45298;54.918;73.504;2023-04-29T10:12:24;22.92;;;12.90;;
59486;SDS011;45298;54.918;73.504;2023-04-29T10:15:03;29.05;;;13.27;;
59486;SDS011;45298;54.918;73.504;2023-04-29T10:17:42;22.73;;;11.68;;
59486;SDS011;45298;54.918;73.504;2023-04-29T10:20:14;18.90;;;9.63;;
59486;SDS011;45298;54.918;73.504;2023-04-29T10:22:50;22.98;;;11.02;;
59486;SDS011;45298;54.918;73.504;2023-04-29T10:25:22;21.50;;;9.85;;
59486;SDS011;45298;54.918;73.504;2023-04-29T10:27:53;16.42;;;8.13;;
59486;SDS011;45298;54.918;73.504;2023-04-29T10:30:23;17.90;;;7.80;;
59486;SDS011;45298;54.918;73.504;2023-04-29T10:32:52;15.65;;;6.47;;
59486;SDS011;45298;54.918;73.504;2023-04-29T10:35:28;18.38;;;8.90;;
59486;SDS011;45298;54.918;73.504;2023-04-29T10:37:57;19.35;;;8.07;;
59486;SDS011;45298;54.918;73.504;2023-04-29T10:40:46;22.02;;;7.68;;
59486;SDS011;45298;54.918;73.504;2023-04-29T10:43:21;36.13;;;14.60;;
59486;SDS011;45298;54.918;73.504;2023-04-29T10:46:35;21.48;;;9.15;;
59486;SDS011;45298;54.918;73.504;2023-04-29T10:48:48;16.60;;;7.60;;
59486;SDS011;45298;54.918;73.504;2023-04-29T10:54:02;12.13;;;6.93;;
59486;SDS011;45298;54.918;73.504;2023-04-29T10:56:38;13.73;;;7.82;;
59486;SDS011;45298;54.918;73.504;2023-04-29T10:59:13;15.32;;;7.32;;
59486;SDS011;45298;54.918;73.504;2023-04-29T11:01:49;15.45;;;8.98;;
59486;SDS011;45298;54.918;73.504;2023-04-29T11:04:20;42.20;;;19.13;;
59486;SDS011;45298;54.918;73.504;2023-04-29T11:06:51;35.55;;;17.60;;
59486;SDS011;45298;54.918;73.504;2023-04-29T11:09:26;37.42;;;16.08;;
59486;SDS011;45298;54.918;73.504;2023-04-29T11:12:00;19.83;;;11.98;;
59486;SDS011;45298;54.918;73.504;2023-04-29T11:14:33;18.65;;;10.50;;
59486;SDS011;45298;54.918;73.504;2023-04-29T11:17:09;23.83;;;12.13;;
59486;SDS011;45298;54.918;73.504;2023-04-29T11:24:58;29.08;;;14.07;;
59486;SDS011;45298;54.918;73.504;2023-04-29T11:27:29;43.03;;;19.55;;
59486;SDS011;45298;54.918;73.504;2023-04-29T11:30:00;33.75;;;18.10;;
59486;SDS011;45298;54.918;73.504;2023-04-29T11:32:38;34.85;;;17.00;;
59486;SDS011;45298;54.918;73.504;2023-04-29T11:35:13;33.85;;;18.85;;
59486;SDS011;45298;54.918;73.504;2023-04-29T11:37:44;36.30;;;19.85;;
59486;SDS011;45298;54.918;73.504;2023-04-29T11:40:14;30.65;;;16.35;;
59486;SDS011;45298;54.918;73.504;2023-04-29T11:42:44;22.92;;;14.55;;
59486;SDS011;45298;54.918;73.504;2023-04-29T11:45:17;29.95;;;17.15;;
59486;SDS011;45298;54.918;73.504;2023-04-29T11:47:47;31.30;;;19.08;;
59486;SDS011;45298;54.918;73.504;2023-04-29T11:50:20;72.57;;;35.70;;
59486;SDS011;45298;54.918;73.504;2023-04-29T11:52:49;55.03;;;26.35;;
59486;SDS011;45298;54.918;73.504;2023-04-29T11:55:18;51.60;;;25.67;;
59486;SDS011;45298;54.918;73.504;2023-04-29T11:57:48;41.03;;;23.85;;
59486;SDS011;45298;54.918;73.504;2023-04-29T12:00:19;50.75;;;27.63;;
59486;SDS011;45298;54.918;73.504;2023-04-29T12:02:51;48.70;;;29.75;;
59486;SDS011;45298;54.918;73.504;2023-04-29T12:05:20;46.90;;;28.90;;
59486;SDS011;45298;54.918;73.504;2023-04-29T12:07:53;45.30;;;27.48;;
59486;SDS011;45298;54.918;73.504;2023-04-29T12:10:22;63.03;;;34.63;;
59486;SDS011;45298;54.918;73.504;2023-04-29T12:12:51;55.47;;;33.40;;
59486;SDS011;45298;54.918;73.504;2023-04-29T12:15:20;54.20;;;33.28;;
59486;SDS011;45298;54.918;73.504;2023-04-29T12:17:50;48.03;;;30.73;;
59486;SDS011;45298;54.918;73.504;2023-04-29T12:20:19;52.85;;;33.45;;
59486;SDS011;45298;54.918;73.504;2023-04-29T12:22:48;57.63;;;34.25;;
59486;SDS011;45298;54.918;73.504;2023-04-29T12:25:17;74.07;;;40.38;;
59486;SDS011;45298;54.918;73.504;2023-04-29T12:27:49;65.22;;;39.17;;
59486;SDS011;45298;54.918;73.504;2023-04-29T12:30:18;81.97;;;46.08;;
59486;SDS011;45298;54.918;73.504;2023-04-29T12:32:50;63.95;;;38.03;;
59486;SDS011;45298;54.918;73.504;2023-04-29T12:35:20;66.68;;;43.15;;
59486;SDS011;45298;54.918;73.504;2023-04-29T12:37:50;73.25;;;43.88;;
59486;SDS011;45298;54.918;73.504;2023-04-29T12:40:19;74.10;;;43.78;;
59486;SDS011;45298;54.918;73.504;2023-04-29T12:42:48;76.50;;;45.38;;
59486;SDS011;45298;54.918;73.504;2023-04-29T12:45:39;101.70;;;56.75;;
59486;SDS011;45298;54.918;73.504;2023-04-29T12:48:07;85.38;;;50.25;;
59486;SDS011;45298;54.918;73.504;2023-04-29T12:50:51;83.07;;;49.35;;
59486;SDS011;45298;54.918;73.504;2023-04-29T12:53:20;96.75;;;55.17;;
59486;SDS011;45298;54.918;73.504;2023-04-29T12:55:50;87.20;;;52.03;;
59486;SDS011;45298;54.918;73.504;2023-04-29T12:58:19;90.93;;;46.20;;
59486;SDS011;45298;54.918;73.504;2023-04-29T13:00:49;99.93;;;51.47;;
59486;SDS011;45298;54.918;73.504;2023-04-29T13:03:18;74.63;;;42.15;;
59486;SDS011;45298;54.918;73.504;2023-04-29T13:05:48;68.82;;;41.17;;
59486;SDS011;45298;54.918;73.504;2023-04-29T13:08:20;64.63;;;37.83;;
59486;SDS011;45298;54.918;73.504;2023-04-29T13:10:49;60.55;;;36.67;;
59486;SDS011;45298;54.918;73.504;2023-04-29T13:13:18;59.13;;;32.58;;
59486;SDS011;45298;54.918;73.504;2023-04-29T13:15:48;58.13;;;33.63;;
59486;SDS011;45298;54.918;73.504;2023-04-29T13:18:18;58.92;;;34.50;;
59486;SDS011;45298;54.918;73.504;2023-04-29T13:20:47;64.20;;;35.95;;
59486;SDS011;45298;54.918;73.504;2023-04-29T13:23:21;57.15;;;34.53;;
59486;SDS011;45298;54.918;73.504;2023-04-29T13:25:51;70.22;;;38.55;;
59486;SDS011;45298;54.918;73.504;2023-04-29T13:28:20;62.63;;;36.47;;
59486;SDS011;45298;54.918;73.504;2023-04-29T13:30:49;65.10;;;36.60;;
59486;SDS011;45298;54.918;73.504;2023-04-29T13:33:19;86.97;;;44.88;;
59486;SDS011;45298;54.918;73.504;2023-04-29T13:35:48;77.88;;;45.45;;
59486;SDS011;45298;54.918;73.504;2023-04-29T13:38:18;48.47;;;28.17;;
59486;SDS011;45298;54.918;73.504;2023-04-29T13:40:47;64.40;;;31.02;;
59486;SDS011;45298;54.918;73.504;2023-04-29T13:43:18;74.18;;;32.97;;
59486;SDS011;45298;54.918;73.504;2023-04-29T13:46:03;56.92;;;30.73;;
59486;SDS011;45298;54.918;73.504;2023-04-29T13:48:34;41.72;;;26.58;;
59486;SDS011;45298;54.918;73.504;2023-04-29T13:51:22;75.70;;;37.72;;
59486;SDS011;45298;54.918;73.504;2023-04-29T13:54:14;63.83;;;36.38;;
59486;SDS011;45298;54.918;73.504;2023-04-29T13:56:46;68.82;;;35.20;;
59486;SDS011;45298;54.918;73.504;2023-04-29T13:59:19;90.80;;;44.90;;
59486;SDS011;45298;54.918;73.504;2023-04-29T14:01:51;88.57;;;42.47;;
59486;SDS011;45298;54.918;73.504;2023-04-29T14:04:40;62.65;;;33.17;;
59486;SDS011;45298;54.918;73.504;2023-04-29T14:07:09;61.10;;;31.77;;
59486;SDS011;45298;54.918;73.504;2023-04-29T14:09:38;68.18;;;33.38;;
59486;SDS011;45298;54.918;73.504;2023-04-29T14:12:08;65.72;;;32.35;;
59486;SDS011;45298;54.918;73.504;2023-04-29T14:14:37;58.70;;;30.80;;
59486;SDS011;45298;54.918;73.504;2023-04-29T14:17:06;55.65;;;30.23;;
59486;SDS011;45298;54.918;73.504;2023-04-29T14:19:37;77.35;;;40.80;;
59486;SDS011;45298;54.918;73.504;2023-04-29T14:22:06;59.47;;;31.58;;
59486;SDS011;45298;54.918;73.504;2023-04-29T14:24:35;62.28;;;34.00;;
59486;SDS011;45298;54.918;73.504;2023-04-29T14:27:03;87.75;;;42.05;;
59486;SDS011;45298;54.918;73.504;2023-04-29T14:29:33;68.90;;;37.03;;
59486;SDS011;45298;54.918;73.504;2023-04-29T14:32:02;69.78;;;37.22;;
59486;SDS011;45298;54.918;73.504;2023-04-29T14:34:32;78.78;;;40.67;;
59486;SDS011;45298;54.918;73.504;2023-04-29T14:37:01;89.95;;;43.78;;
59486;SDS011;45298;54.918;73.504;2023-04-29T14:39:30;70.97;;;38.00;;
59486;SDS011;45298;54.918;73.504;2023-04-29T14:42:00;88.60;;;41.63;;
59486;SDS011;45298;54.918;73.504;2023-04-29T14:44:30;84.60;;;41.75;;
59486;SDS011;45298;54.918;73.504;2023-04-29T14:47:02;136.35;;;63.13;;
59486;SDS011;45298;54.918;73.504;2023-04-29T14:49:32;63.60;;;34.72;;
59486;SDS011;45298;54.918;73.504;2023-04-29T14:52:01;54.78;;;33.60;;
59486;SDS011;45298;54.918;73.504;2023-04-29T14:54:30;57.20;;;34.42;;
59486;SDS011;45298;54.918;73.504;2023-04-29T14:56:59;93.20;;;47.25;;
59486;SDS011;45298;54.918;73.504;2023-04-29T14:59:27;85.30;;;43.88;;
59486;SDS011;45298;54.918;73.504;2023-04-29T15:01:57;85.55;;;45.97;;
59486;SDS011;45298;54.918;73.504;2023-04-29T15:04:27;96.57;;;51.08;;
59486;SDS011;45298;54.918;73.504;2023-04-29T15:06:57;78.10;;;46.83;;
59486;SDS011;45298;54.918;73.504;2023-04-29T15:09:26;106.88;;;57.03;;
59486;SDS011;45298;54.918;73.504;2023-04-29T15:11:56;80.63;;;44.80;;
59486;SDS011;45298;54.918;73.504;2023-04-29T15:14:25;75.90;;;43.22;;